sensor_id;sensor_type;location;lat;lon;timestamp;P1;durP1;ratioP1;P2;durP2;ratioP2
20711;SDS011;10517;50.742;4.224;2023-08-07T00:00:05;5.93;;;5.72;;
20711;SDS011;10517;50.742;4.224;2023-08-07T00:02:34;6.28;;;6.07;;
20711;SDS011;10517;50.742;4.224;2023-08-07T00:05:00;7.28;;;6.97;;
20711;SDS011;10517;50.742;4.224;2023-08-07T00:07:26;5.53;;;5.32;;
20711;SDS011;10517;50.742;4.224;2023-08-07T00:09:52;6.75;;;6.55;;
20711;SDS011;10517;50.742;4.224;2023-08-07T00:12:18;7.00;;;6.80;;
20711;SDS011;10517;50.742;4.224;2023-08-07T00:14:44;5.70;;;5.50;;
20711;SDS011;10517;50.742;4.224;2023-08-07T00:17:12;6.30;;;6.10;;
20711;SDS011;10517;50.742;4.224;2023-08-07T00:19:37;7.10;;;6.68;;
20711;SDS011;10517;50.742;4.224;2023-08-07T00:22:03;6.60;;;6.40;;
20711;SDS011;10517;50.742;4.224;2023-08-07T00:24:29;6.57;;;6.28;;
20711;SDS011;10517;50.742;4.224;2023-08-07T00:26:55;6.00;;;5.80;;
20711;SDS011;10517;50.742;4.224;2023-08-07T00:29:21;7.28;;;7.07;;
20711;SDS011;10517;50.742;4.224;2023-08-07T00:31:47;6.50;;;6.30;;
20711;SDS011;10517;50.742;4.224;2023-08-07T00:34:12;5.45;;;5.25;;
20711;SDS011;10517;50.742;4.224;2023-08-07T00:36:38;6.20;;;6.00;;
20711;SDS011;10517;50.742;4.224;2023-08-07T00:39:04;6.20;;;6.00;;
20711;SDS011;10517;50.742;4.224;2023-08-07T00:41:30;9.32;;;6.95;;
20711;SDS011;10517;50.742;4.224;2023-08-07T00:43:55;6.10;;;5.90;;
20711;SDS011;10517;50.742;4.224;2023-08-07T00:46:21;6.38;;;6.18;;
20711;SDS011;10517;50.742;4.224;2023-08-07T00:48:47;7.05;;;6.72;;
20711;SDS011;10517;50.742;4.224;2023-08-07T00:51:13;6.72;;;6.53;;
20711;SDS011;10517;50.742;4.224;2023-08-07T00:53:40;6.95;;;6.75;;
20711;SDS011;10517;50.742;4.224;2023-08-07T00:56:06;6.88;;;6.57;;
20711;SDS011;10517;50.742;4.224;2023-08-07T00:58:32;6.47;;;6.28;;
20711;SDS011;10517;50.742;4.224;2023-08-07T01:00:59;6.75;;;6.55;;
20711;SDS011;10517;50.742;4.224;2023-08-07T01:03:25;6.63;;;6.43;;
20711;SDS011;10517;50.742;4.224;2023-08-07T01:05:50;6.47;;;6.28;;
20711;SDS011;10517;50.742;4.224;2023-08-07T01:08:16;6.88;;;6.68;;
20711;SDS011;10517;50.742;4.224;2023-08-07T01:14:05;6.85;;;6.55;;
20711;SDS011;10517;50.742;4.224;2023-08-07T01:19:36;6.22;;;6.03;;
20711;SDS011;10517;50.742;4.224;2023-08-07T01:22:15;6.35;;;6.15;;
20711;SDS011;10517;50.742;4.224;2023-08-07T01:24:43;5.88;;;5.68;;
20711;SDS011;10517;50.742;4.224;2023-08-07T01:32:39;6.30;;;6.10;;
20711;SDS011;10517;50.742;4.224;2023-08-07T01:35:11;6.47;;;6.28;;
20711;SDS011;10517;50.742;4.224;2023-08-07T01:37:39;6.63;;;6.22;;
20711;SDS011;10517;50.742;4.224;2023-08-07T01:40:07;5.95;;;5.75;;
20711;SDS011;10517;50.742;4.224;2023-08-07T01:42:36;5.75;;;5.55;;
20711;SDS011;10517;50.742;4.224;2023-08-07T01:45:03;6.82;;;6.63;;
20711;SDS011;10517;50.742;4.224;2023-08-07T01:47:30;6.47;;;6.28;;
20711;SDS011;10517;50.742;4.224;2023-08-07T01:49:55;7.20;;;6.93;;
20711;SDS011;10517;50.742;4.224;2023-08-07T01:52:21;6.45;;;6.25;;
20711;SDS011;10517;50.742;4.224;2023-08-07T01:54:48;6.35;;;6.15;;
20711;SDS011;10517;50.742;4.224;2023-08-07T01:57:13;6.47;;;6.22;;
20711;SDS011;10517;50.742;4.224;2023-08-07T01:59:39;7.50;;;7.20;;
20711;SDS011;10517;50.742;4.224;2023-08-07T02:02:05;6.72;;;6.53;;
20711;SDS011;10517;50.742;4.224;2023-08-07T02:04:31;5.63;;;5.43;;
20711;SDS011;10517;50.742;4.224;2023-08-07T02:06:56;6.40;;;6.20;;
20711;SDS011;10517;50.742;4.224;2023-08-07T02:09:22;6.88;;;6.68;;
20711;SDS011;10517;50.742;4.224;2023-08-07T02:11:48;6.28;;;6.00;;
20711;SDS011;10517;50.742;4.224;2023-08-07T02:14:14;6.28;;;6.07;;
20711;SDS011;10517;50.742;4.224;2023-08-07T02:16:39;6.03;;;5.82;;
20711;SDS011;10517;50.742;4.224;2023-08-07T02:19:05;7.32;;;6.95;;
20711;SDS011;10517;50.742;4.224;2023-08-07T02:21:31;6.43;;;6.22;;
20711;SDS011;10517;50.742;4.224;2023-08-07T02:23:57;6.50;;;6.30;;
20711;SDS011;10517;50.742;4.224;2023-08-07T02:26:23;6.85;;;6.65;;
20711;SDS011;10517;50.742;4.224;2023-08-07T02:28:49;6.15;;;5.95;;
20711;SDS011;10517;50.742;4.224;2023-08-07T02:31:15;5.93;;;5.72;;
20711;SDS011;10517;50.742;4.224;2023-08-07T02:33:40;6.55;;;6.35;;
20711;SDS011;10517;50.742;4.224;2023-08-07T02:36:06;6.50;;;6.30;;
20711;SDS011;10517;50.742;4.224;2023-08-07T02:38:32;6.53;;;6.32;;
20711;SDS011;10517;50.742;4.224;2023-08-07T02:40:58;6.40;;;6.20;;
20711;SDS011;10517;50.742;4.224;2023-08-07T02:43:24;6.72;;;6.53;;
20711;SDS011;10517;50.742;4.224;2023-08-07T02:45:52;6.68;;;6.47;;
20711;SDS011;10517;50.742;4.224;2023-08-07T02:48:17;6.93;;;6.65;;
20711;SDS011;10517;50.742;4.224;2023-08-07T02:50:44;6.32;;;6.10;;
20711;SDS011;10517;50.742;4.224;2023-08-07T02:53:10;6.72;;;6.53;;
20711;SDS011;10517;50.742;4.224;2023-08-07T02:55:36;6.10;;;5.90;;
20711;SDS011;10517;50.742;4.224;2023-08-07T02:58:02;7.03;;;6.82;;
20711;SDS011;10517;50.742;4.224;2023-08-07T03:00:28;6.45;;;6.15;;
20711;SDS011;10517;50.742;4.224;2023-08-07T03:02:54;7.38;;;7.18;;
20711;SDS011;10517;50.742;4.224;2023-08-07T03:05:19;7.07;;;6.88;;
20711;SDS011;10517;50.742;4.224;2023-08-07T03:07:45;7.05;;;6.70;;
20711;SDS011;10517;50.742;4.224;2023-08-07T03:10:11;6.43;;;6.22;;
20711;SDS011;10517;50.742;4.224;2023-08-07T03:12:37;8.07;;;7.78;;
20711;SDS011;10517;50.742;4.224;2023-08-07T03:15:04;7.45;;;7.25;;
20711;SDS011;10517;50.742;4.224;2023-08-07T03:17:30;7.20;;;7.00;;
20711;SDS011;10517;50.742;4.224;2023-08-07T03:19:56;6.90;;;6.70;;
20711;SDS011;10517;50.742;4.224;2023-08-07T03:22:22;7.65;;;7.35;;
20711;SDS011;10517;50.742;4.224;2023-08-07T03:24:48;7.22;;;6.97;;
20711;SDS011;10517;50.742;4.224;2023-08-07T03:27:14;6.90;;;6.60;;
20711;SDS011;10517;50.742;4.224;2023-08-07T03:29:40;6.22;;;6.03;;
20711;SDS011;10517;50.742;4.224;2023-08-07T03:32:06;6.13;;;5.93;;
20711;SDS011;10517;50.742;4.224;2023-08-07T03:34:33;5.72;;;5.53;;
20711;SDS011;10517;50.742;4.224;2023-08-07T03:36:59;7.43;;;6.88;;
20711;SDS011;10517;50.742;4.224;2023-08-07T03:39:25;6.55;;;6.35;;
20711;SDS011;10517;50.742;4.224;2023-08-07T03:41:50;6.70;;;6.47;;
20711;SDS011;10517;50.742;4.224;2023-08-07T03:44:16;6.70;;;6.40;;
20711;SDS011;10517;50.742;4.224;2023-08-07T03:46:42;6.07;;;5.88;;
20711;SDS011;10517;50.742;4.224;2023-08-07T03:49:08;17.98;;;6.68;;
20711;SDS011;10517;50.742;4.224;2023-08-07T03:51:34;6.88;;;6.68;;
20711;SDS011;10517;50.742;4.224;2023-08-07T03:53:59;6.63;;;6.43;;
20711;SDS011;10517;50.742;4.224;2023-08-07T03:56:25;5.60;;;5.40;;
20711;SDS011;10517;50.742;4.224;2023-08-07T03:58:51;5.30;;;5.10;;
20711;SDS011;10517;50.742;4.224;2023-08-07T04:01:17;6.28;;;6.07;;
20711;SDS011;10517;50.742;4.224;2023-08-07T04:03:44;7.55;;;7.25;;
20711;SDS011;10517;50.742;4.224;2023-08-07T04:06:13;7.20;;;6.53;;
20711;SDS011;10517;50.742;4.224;2023-08-07T04:08:41;6.32;;;6.05;;
20711;SDS011;10517;50.742;4.224;2023-08-07T04:11:09;6.95;;;6.75;;
20711;SDS011;10517;50.742;4.224;2023-08-07T04:13:35;6.57;;;6.38;;
20711;SDS011;10517;50.742;4.224;2023-08-07T04:16:01;6.57;;;6.38;;
20711;SDS011;10517;50.742;4.224;2023-08-07T04:18:29;5.72;;;5.50;;
20711;SDS011;10517;50.742;4.224;2023-08-07T04:20:56;6.57;;;6.38;;
20711;SDS011;10517;50.742;4.224;2023-08-07T04:23:22;6.68;;;6.38;;
20711;SDS011;10517;50.742;4.224;2023-08-07T04:25:48;6.47;;;6.28;;
20711;SDS011;10517;50.742;4.224;2023-08-07T04:28:15;6.80;;;6.60;;
20711;SDS011;10517;50.742;4.224;2023-08-07T04:30:42;6.78;;;6.57;;
20711;SDS011;10517;50.742;4.224;2023-08-07T04:33:09;5.65;;;5.45;;
20711;SDS011;10517;50.742;4.224;2023-08-07T04:35:34;6.28;;;6.07;;
20711;SDS011;10517;50.742;4.224;2023-08-07T04:38:01;5.00;;;4.88;;
20711;SDS011;10517;50.742;4.224;2023-08-07T04:40:27;11.40;;;6.05;;
20711;SDS011;10517;50.742;4.224;2023-08-07T04:42:55;5.43;;;5.22;;
20711;SDS011;10517;50.742;4.224;2023-08-07T04:45:21;6.70;;;6.50;;
20711;SDS011;10517;50.742;4.224;2023-08-07T04:47:47;7.10;;;6.80;;
20711;SDS011;10517;50.742;4.224;2023-08-07T04:50:12;6.88;;;6.68;;
20711;SDS011;10517;50.742;4.224;2023-08-07T04:52:38;6.15;;;5.95;;
20711;SDS011;10517;50.742;4.224;2023-08-07T04:55:04;6.53;;;6.32;;
20711;SDS011;10517;50.742;4.224;2023-08-07T04:57:30;7.47;;;7.18;;
20711;SDS011;10517;50.742;4.224;2023-08-07T04:59:56;7.00;;;6.80;;
20711;SDS011;10517;50.742;4.224;2023-08-07T05:02:22;6.95;;;6.68;;
20711;SDS011;10517;50.742;4.224;2023-08-07T05:04:47;7.93;;;7.63;;
20711;SDS011;10517;50.742;4.224;2023-08-07T05:07:13;7.78;;;7.47;;
20711;SDS011;10517;50.742;4.224;2023-08-07T05:09:40;6.88;;;6.68;;
20711;SDS011;10517;50.742;4.224;2023-08-07T05:12:06;8.40;;;8.00;;
20711;SDS011;10517;50.742;4.224;2023-08-07T05:14:32;8.10;;;7.80;;
20711;SDS011;10517;50.742;4.224;2023-08-07T05:16:58;8.40;;;8.10;;
20711;SDS011;10517;50.742;4.224;2023-08-07T05:19:25;8.18;;;7.88;;
20711;SDS011;10517;50.742;4.224;2023-08-07T05:21:51;8.85;;;8.55;;
20711;SDS011;10517;50.742;4.224;2023-08-07T05:24:17;8.27;;;7.97;;
20711;SDS011;10517;50.742;4.224;2023-08-07T05:26:43;8.48;;;8.18;;
20711;SDS011;10517;50.742;4.224;2023-08-07T05:29:09;9.15;;;8.85;;
20711;SDS011;10517;50.742;4.224;2023-08-07T05:31:35;9.30;;;8.90;;
20711;SDS011;10517;50.742;4.224;2023-08-07T05:34:01;8.20;;;7.90;;
20711;SDS011;10517;50.742;4.224;2023-08-07T05:36:27;9.50;;;9.00;;
20711;SDS011;10517;50.742;4.224;2023-08-07T05:38:54;8.63;;;8.23;;
20711;SDS011;10517;50.742;4.224;2023-08-07T05:41:20;8.32;;;7.88;;
20711;SDS011;10517;50.742;4.224;2023-08-07T05:43:46;8.40;;;8.10;;
20711;SDS011;10517;50.742;4.224;2023-08-07T05:46:12;8.85;;;8.55;;
20711;SDS011;10517;50.742;4.224;2023-08-07T05:48:37;7.15;;;6.95;;
20711;SDS011;10517;50.742;4.224;2023-08-07T05:51:03;7.95;;;7.65;;
20711;SDS011;10517;50.742;4.224;2023-08-07T05:53:29;8.63;;;8.32;;
20711;SDS011;10517;50.742;4.224;2023-08-07T05:55:55;8.25;;;7.95;;
20711;SDS011;10517;50.742;4.224;2023-08-07T05:58:21;7.93;;;7.63;;
20711;SDS011;10517;50.742;4.224;2023-08-07T06:00:47;8.45;;;8.15;;
20711;SDS011;10517;50.742;4.224;2023-08-07T06:03:13;8.15;;;7.85;;
20711;SDS011;10517;50.742;4.224;2023-08-07T06:05:39;7.85;;;7.55;;
20711;SDS011;10517;50.742;4.224;2023-08-07T06:08:05;8.45;;;8.15;;
20711;SDS011;10517;50.742;4.224;2023-08-07T06:10:31;8.50;;;8.20;;
20711;SDS011;10517;50.742;4.224;2023-08-07T06:12:57;8.27;;;7.97;;
20711;SDS011;10517;50.742;4.224;2023-08-07T06:15:22;9.30;;;9.00;;
20711;SDS011;10517;50.742;4.224;2023-08-07T06:17:48;9.35;;;9.00;;
20711;SDS011;10517;50.742;4.224;2023-08-07T06:20:16;10.20;;;9.63;;
20711;SDS011;10517;50.742;4.224;2023-08-07T06:22:41;9.80;;;9.50;;
20711;SDS011;10517;50.742;4.224;2023-08-07T06:25:07;9.85;;;9.45;;
20711;SDS011;10517;50.742;4.224;2023-08-07T06:27:33;8.00;;;7.70;;
20711;SDS011;10517;50.742;4.224;2023-08-07T06:29:59;8.70;;;8.40;;
20711;SDS011;10517;50.742;4.224;2023-08-07T06:32:25;9.15;;;8.80;;
20711;SDS011;10517;50.742;4.224;2023-08-07T06:34:51;10.95;;;10.10;;
20711;SDS011;10517;50.742;4.224;2023-08-07T06:37:18;8.80;;;8.45;;
20711;SDS011;10517;50.742;4.224;2023-08-07T06:39:44;9.77;;;9.45;;
20711;SDS011;10517;50.742;4.224;2023-08-07T06:42:11;9.65;;;8.85;;
20711;SDS011;10517;50.742;4.224;2023-08-07T06:44:37;8.85;;;8.55;;
20711;SDS011;10517;50.742;4.224;2023-08-07T06:47:03;7.78;;;7.50;;
20711;SDS011;10517;50.742;4.224;2023-08-07T06:49:29;8.00;;;7.70;;
20711;SDS011;10517;50.742;4.224;2023-08-07T06:51:57;7.07;;;6.88;;
20711;SDS011;10517;50.742;4.224;2023-08-07T06:54:23;8.00;;;7.70;;
20711;SDS011;10517;50.742;4.224;2023-08-07T06:56:49;6.82;;;6.60;;
20711;SDS011;10517;50.742;4.224;2023-08-07T06:59:14;5.90;;;5.60;;
20711;SDS011;10517;50.742;4.224;2023-08-07T07:01:40;5.53;;;5.32;;
20711;SDS011;10517;50.742;4.224;2023-08-07T07:04:06;6.80;;;6.40;;
20711;SDS011;10517;50.742;4.224;2023-08-07T07:06:33;5.43;;;5.22;;
20711;SDS011;10517;50.742;4.224;2023-08-07T07:08:58;6.88;;;6.25;;
20711;SDS011;10517;50.742;4.224;2023-08-07T07:11:24;6.50;;;5.90;;
20711;SDS011;10517;50.742;4.224;2023-08-07T07:13:51;5.43;;;5.22;;
20711;SDS011;10517;50.742;4.224;2023-08-07T07:16:17;4.32;;;4.22;;
20711;SDS011;10517;50.742;4.224;2023-08-07T07:18:44;4.10;;;4.00;;
20711;SDS011;10517;50.742;4.224;2023-08-07T07:21:09;4.63;;;4.32;;
20711;SDS011;10517;50.742;4.224;2023-08-07T07:23:35;3.45;;;3.35;;
20711;SDS011;10517;50.742;4.224;2023-08-07T07:26:01;4.70;;;4.47;;
20711;SDS011;10517;50.742;4.224;2023-08-07T07:28:27;3.45;;;3.35;;
20711;SDS011;10517;50.742;4.224;2023-08-07T07:30:53;2.95;;;2.85;;
20711;SDS011;10517;50.742;4.224;2023-08-07T07:33:18;2.80;;;2.70;;
20711;SDS011;10517;50.742;4.224;2023-08-07T07:35:44;2.40;;;2.40;;
20711;SDS011;10517;50.742;4.224;2023-08-07T07:38:10;2.40;;;2.33;;
20711;SDS011;10517;50.742;4.224;2023-08-07T07:40:36;3.13;;;2.95;;
20711;SDS011;10517;50.742;4.224;2023-08-07T07:43:03;2.15;;;2.05;;
20711;SDS011;10517;50.742;4.224;2023-08-07T07:45:28;1.90;;;1.90;;
20711;SDS011;10517;50.742;4.224;2023-08-07T07:47:54;1.40;;;1.40;;
20711;SDS011;10517;50.742;4.224;2023-08-07T07:50:20;1.48;;;1.48;;
20711;SDS011;10517;50.742;4.224;2023-08-07T07:52:46;1.08;;;1.08;;
20711;SDS011;10517;50.742;4.224;2023-08-07T07:55:12;0.80;;;0.80;;
20711;SDS011;10517;50.742;4.224;2023-08-07T07:57:39;2.92;;;2.08;;
20711;SDS011;10517;50.742;4.224;2023-08-07T08:00:06;0.88;;;0.88;;
20711;SDS011;10517;50.742;4.224;2023-08-07T08:02:35;0.90;;;0.90;;
20711;SDS011;10517;50.742;4.224;2023-08-07T08:05:02;0.50;;;0.50;;
20711;SDS011;10517;50.742;4.224;2023-08-07T08:07:28;0.82;;;0.80;;
20711;SDS011;10517;50.742;4.224;2023-08-07T08:09:53;3.38;;;0.80;;
20711;SDS011;10517;50.742;4.224;2023-08-07T08:12:21;1.20;;;1.15;;
20711;SDS011;10517;50.742;4.224;2023-08-07T08:14:47;1.15;;;1.15;;
20711;SDS011;10517;50.742;4.224;2023-08-07T08:17:13;0.80;;;0.80;;
20711;SDS011;10517;50.742;4.224;2023-08-07T08:19:39;0.82;;;0.80;;
20711;SDS011;10517;50.742;4.224;2023-08-07T08:22:05;0.95;;;0.95;;
20711;SDS011;10517;50.742;4.224;2023-08-07T08:24:31;0.85;;;0.80;;
20711;SDS011;10517;50.742;4.224;2023-08-07T08:26:57;0.82;;;0.82;;
20711;SDS011;10517;50.742;4.224;2023-08-07T08:29:23;1.30;;;1.30;;
20711;SDS011;10517;50.742;4.224;2023-08-07T08:31:48;0.88;;;0.85;;
20711;SDS011;10517;50.742;4.224;2023-08-07T08:34:16;0.55;;;0.55;;
20711;SDS011;10517;50.742;4.224;2023-08-07T08:36:42;12.40;;;0.90;;
20711;SDS011;10517;50.742;4.224;2023-08-07T08:39:07;1.20;;;1.10;;
20711;SDS011;10517;50.742;4.224;2023-08-07T08:41:33;1.02;;;0.90;;
20711;SDS011;10517;50.742;4.224;2023-08-07T08:44:00;1.23;;;1.15;;
20711;SDS011;10517;50.742;4.224;2023-08-07T08:46:28;0.80;;;0.80;;
20711;SDS011;10517;50.742;4.224;2023-08-07T08:48:56;0.70;;;0.70;;
20711;SDS011;10517;50.742;4.224;2023-08-07T08:51:24;1.85;;;1.30;;
20711;SDS011;10517;50.742;4.224;2023-08-07T08:53:53;0.80;;;0.80;;
20711;SDS011;10517;50.742;4.224;2023-08-07T08:56:21;2.15;;;1.92;;
20711;SDS011;10517;50.742;4.224;2023-08-07T08:58:51;0.80;;;0.80;;
20711;SDS011;10517;50.742;4.224;2023-08-07T09:01:17;0.98;;;0.98;;
20711;SDS011;10517;50.742;4.224;2023-08-07T09:03:46;0.70;;;0.70;;
20711;SDS011;10517;50.742;4.224;2023-08-07T09:06:12;0.90;;;0.90;;
20711;SDS011;10517;50.742;4.224;2023-08-07T09:08:42;1.10;;;1.05;;
20711;SDS011;10517;50.742;4.224;2023-08-07T09:11:08;1.33;;;1.25;;
20711;SDS011;10517;50.742;4.224;2023-08-07T09:13:37;1.15;;;1.15;;
20711;SDS011;10517;50.742;4.224;2023-08-07T09:16:04;2.72;;;1.20;;
20711;SDS011;10517;50.742;4.224;2023-08-07T09:18:32;1.20;;;1.20;;
20711;SDS011;10517;50.742;4.224;2023-08-07T09:20:59;1.40;;;1.40;;
20711;SDS011;10517;50.742;4.224;2023-08-07T09:23:25;1.13;;;1.13;;
20711;SDS011;10517;50.742;4.224;2023-08-07T09:26:01;1.27;;;1.25;;
20711;SDS011;10517;50.742;4.224;2023-08-07T09:28:29;1.10;;;1.10;;
20711;SDS011;10517;50.742;4.224;2023-08-07T09:30:55;1.33;;;1.33;;
20711;SDS011;10517;50.742;4.224;2023-08-07T09:33:39;1.00;;;1.00;;
20711;SDS011;10517;50.742;4.224;2023-08-07T09:36:05;0.98;;;0.98;;
20711;SDS011;10517;50.742;4.224;2023-08-07T09:38:31;1.02;;;1.02;;
20711;SDS011;10517;50.742;4.224;2023-08-07T09:40:58;6.90;;;2.03;;
20711;SDS011;10517;50.742;4.224;2023-08-07T09:43:25;1.30;;;1.30;;
20711;SDS011;10517;50.742;4.224;2023-08-07T09:45:51;1.00;;;1.00;;
20711;SDS011;10517;50.742;4.224;2023-08-07T09:48:23;1.42;;;1.42;;
20711;SDS011;10517;50.742;4.224;2023-08-07T09:50:53;1.17;;;1.17;;
20711;SDS011;10517;50.742;4.224;2023-08-07T09:53:26;1.83;;;1.73;;
20711;SDS011;10517;50.742;4.224;2023-08-07T09:55:55;1.00;;;1.00;;
20711;SDS011;10517;50.742;4.224;2023-08-07T09:58:21;2.47;;;1.63;;
20711;SDS011;10517;50.742;4.224;2023-08-07T10:00:48;1.10;;;1.10;;
20711;SDS011;10517;50.742;4.224;2023-08-07T10:03:15;2.90;;;1.20;;
20711;SDS011;10517;50.742;4.224;2023-08-07T10:05:42;0.98;;;0.98;;
20711;SDS011;10517;50.742;4.224;2023-08-07T10:08:08;1.40;;;1.40;;
20711;SDS011;10517;50.742;4.224;2023-08-07T10:10:36;1.20;;;1.20;;
20711;SDS011;10517;50.742;4.224;2023-08-07T10:13:03;1.60;;;1.60;;
20711;SDS011;10517;50.742;4.224;2023-08-07T10:15:29;2.15;;;2.05;;
20711;SDS011;10517;50.742;4.224;2023-08-07T10:17:57;1.20;;;1.20;;
20711;SDS011;10517;50.742;4.224;2023-08-07T10:20:24;2.50;;;2.30;;
20711;SDS011;10517;50.742;4.224;2023-08-07T10:22:52;1.42;;;1.42;;
20711;SDS011;10517;50.742;4.224;2023-08-07T10:25:21;1.58;;;1.58;;
20711;SDS011;10517;50.742;4.224;2023-08-07T10:27:49;1.25;;;1.25;;
20711;SDS011;10517;50.742;4.224;2023-08-07T10:30:17;1.10;;;1.10;;
20711;SDS011;10517;50.742;4.224;2023-08-07T10:32:45;1.80;;;1.70;;
20711;SDS011;10517;50.742;4.224;2023-08-07T10:35:24;1.27;;;1.27;;
20711;SDS011;10517;50.742;4.224;2023-08-07T10:37:51;1.20;;;1.20;;
20711;SDS011;10517;50.742;4.224;2023-08-07T10:40:19;1.50;;;1.50;;
20711;SDS011;10517;50.742;4.224;2023-08-07T10:45:25;1.80;;;1.80;;
20711;SDS011;10517;50.742;4.224;2023-08-07T10:50:28;1.50;;;1.40;;
20711;SDS011;10517;50.742;4.224;2023-08-07T10:52:55;1.70;;;1.67;;
20711;SDS011;10517;50.742;4.224;2023-08-07T10:55:20;1.77;;;1.77;;
20711;SDS011;10517;50.742;4.224;2023-08-07T10:57:48;2.17;;;2.10;;
20711;SDS011;10517;50.742;4.224;2023-08-07T11:00:14;2.67;;;1.85;;
20711;SDS011;10517;50.742;4.224;2023-08-07T11:02:41;2.15;;;2.05;;
20711;SDS011;10517;50.742;4.224;2023-08-07T11:05:07;2.00;;;1.90;;
20711;SDS011;10517;50.742;4.224;2023-08-07T11:07:33;1.80;;;1.80;;
20711;SDS011;10517;50.742;4.224;2023-08-07T11:10:04;1.50;;;1.50;;
20711;SDS011;10517;50.742;4.224;2023-08-07T11:12:30;1.90;;;1.80;;
20711;SDS011;10517;50.742;4.224;2023-08-07T11:14:56;1.70;;;1.70;;
20711;SDS011;10517;50.742;4.224;2023-08-07T11:17:25;1.92;;;1.92;;
20711;SDS011;10517;50.742;4.224;2023-08-07T11:19:52;1.77;;;1.77;;
20711;SDS011;10517;50.742;4.224;2023-08-07T11:22:19;2.00;;;1.90;;
20711;SDS011;10517;50.742;4.224;2023-08-07T11:24:49;1.70;;;1.70;;
20711;SDS011;10517;50.742;4.224;2023-08-07T11:27:16;1.80;;;1.80;;
20711;SDS011;10517;50.742;4.224;2023-08-07T11:29:45;1.98;;;1.88;;
20711;SDS011;10517;50.742;4.224;2023-08-07T11:32:12;2.08;;;1.98;;
20711;SDS011;10517;50.742;4.224;2023-08-07T11:34:39;1.40;;;1.40;;
20711;SDS011;10517;50.742;4.224;2023-08-07T11:37:05;2.45;;;2.35;;
20711;SDS011;10517;50.742;4.224;2023-08-07T11:39:31;1.70;;;1.70;;
20711;SDS011;10517;50.742;4.224;2023-08-07T11:41:56;1.70;;;1.70;;
20711;SDS011;10517;50.742;4.224;2023-08-07T11:44:22;1.98;;;1.88;;
20711;SDS011;10517;50.742;4.224;2023-08-07T11:46:50;1.80;;;1.80;;
20711;SDS011;10517;50.742;4.224;2023-08-07T11:49:16;1.42;;;1.42;;
20711;SDS011;10517;50.742;4.224;2023-08-07T11:51:42;1.95;;;1.95;;
20711;SDS011;10517;50.742;4.224;2023-08-07T11:54:13;1.60;;;1.60;;
20711;SDS011;10517;50.742;4.224;2023-08-07T11:56:40;1.60;;;1.50;;
20711;SDS011;10517;50.742;4.224;2023-08-07T11:59:08;1.52;;;1.52;;
20711;SDS011;10517;50.742;4.224;2023-08-07T12:01:36;1.88;;;1.88;;
20711;SDS011;10517;50.742;4.224;2023-08-07T12:06:30;2.03;;;1.92;;
20711;SDS011;10517;50.742;4.224;2023-08-07T12:08:57;1.65;;;1.65;;
20711;SDS011;10517;50.742;4.224;2023-08-07T12:11:23;1.83;;;1.83;;
20711;SDS011;10517;50.742;4.224;2023-08-07T12:13:49;1.73;;;1.73;;
20711;SDS011;10517;50.742;4.224;2023-08-07T12:16:15;1.40;;;1.40;;
20711;SDS011;10517;50.742;4.224;2023-08-07T12:18:45;1.80;;;1.80;;
20711;SDS011;10517;50.742;4.224;2023-08-07T12:21:19;1.55;;;1.55;;
20711;SDS011;10517;50.742;4.224;2023-08-07T12:23:49;1.50;;;1.45;;
20711;SDS011;10517;50.742;4.224;2023-08-07T12:26:15;1.60;;;1.60;;
20711;SDS011;10517;50.742;4.224;2023-08-07T12:28:41;1.50;;;1.50;;
20711;SDS011;10517;50.742;4.224;2023-08-07T12:31:08;2.30;;;2.20;;
20711;SDS011;10517;50.742;4.224;2023-08-07T12:33:34;1.65;;;1.65;;
20711;SDS011;10517;50.742;4.224;2023-08-07T12:36:00;1.60;;;1.60;;
20711;SDS011;10517;50.742;4.224;2023-08-07T12:38:26;1.73;;;1.73;;
20711;SDS011;10517;50.742;4.224;2023-08-07T12:40:52;1.70;;;1.70;;
20711;SDS011;10517;50.742;4.224;2023-08-07T12:43:18;2.13;;;2.00;;
20711;SDS011;10517;50.742;4.224;2023-08-07T12:45:44;1.83;;;1.83;;
20711;SDS011;10517;50.742;4.224;2023-08-07T12:48:10;1.85;;;1.85;;
20711;SDS011;10517;50.742;4.224;2023-08-07T12:50:36;2.05;;;1.95;;
20711;SDS011;10517;50.742;4.224;2023-08-07T12:53:02;1.45;;;1.45;;
20711;SDS011;10517;50.742;4.224;2023-08-07T12:55:28;2.08;;;1.98;;
20711;SDS011;10517;50.742;4.224;2023-08-07T12:57:55;1.63;;;1.60;;
20711;SDS011;10517;50.742;4.224;2023-08-07T13:00:21;1.50;;;1.50;;
20711;SDS011;10517;50.742;4.224;2023-08-07T13:02:48;1.50;;;1.50;;
20711;SDS011;10517;50.742;4.224;2023-08-07T13:05:15;1.55;;;1.55;;
20711;SDS011;10517;50.742;4.224;2023-08-07T13:07:45;1.73;;;1.73;;
20711;SDS011;10517;50.742;4.224;2023-08-07T13:10:12;1.50;;;1.50;;
20711;SDS011;10517;50.742;4.224;2023-08-07T13:12:40;1.40;;;1.40;;
20711;SDS011;10517;50.742;4.224;2023-08-07T13:15:08;2.60;;;2.50;;
20711;SDS011;10517;50.742;4.224;2023-08-07T13:17:38;1.80;;;1.80;;
20711;SDS011;10517;50.742;4.224;2023-08-07T13:20:05;2.03;;;2.00;;
20711;SDS011;10517;50.742;4.224;2023-08-07T13:22:37;1.52;;;1.48;;
20711;SDS011;10517;50.742;4.224;2023-08-07T13:25:03;1.52;;;1.52;;
20711;SDS011;10517;50.742;4.224;2023-08-07T13:27:30;3.10;;;1.40;;
20711;SDS011;10517;50.742;4.224;2023-08-07T13:29:58;1.55;;;1.55;;
20711;SDS011;10517;50.742;4.224;2023-08-07T13:32:24;1.50;;;1.50;;
20711;SDS011;10517;50.742;4.224;2023-08-07T13:34:50;1.48;;;1.48;;
20711;SDS011;10517;50.742;4.224;2023-08-07T13:37:16;1.90;;;1.80;;
20711;SDS011;10517;50.742;4.224;2023-08-07T13:39:42;2.10;;;2.00;;
20711;SDS011;10517;50.742;4.224;2023-08-07T13:42:08;1.70;;;1.70;;
20711;SDS011;10517;50.742;4.224;2023-08-07T13:44:35;1.80;;;1.80;;
20711;SDS011;10517;50.742;4.224;2023-08-07T13:47:04;1.75;;;1.75;;
20711;SDS011;10517;50.742;4.224;2023-08-07T13:49:31;1.70;;;1.70;;
20711;SDS011;10517;50.742;4.224;2023-08-07T13:51:57;1.60;;;1.60;;
20711;SDS011;10517;50.742;4.224;2023-08-07T13:54:23;1.80;;;1.80;;
20711;SDS011;10517;50.742;4.224;2023-08-07T13:56:49;2.10;;;2.00;;
20711;SDS011;10517;50.742;4.224;2023-08-07T13:59:15;1.88;;;1.88;;
20711;SDS011;10517;50.742;4.224;2023-08-07T14:01:41;11.48;;;1.90;;
20711;SDS011;10517;50.742;4.224;2023-08-07T14:04:07;1.80;;;1.70;;
20711;SDS011;10517;50.742;4.224;2023-08-07T14:06:33;1.60;;;1.60;;
20711;SDS011;10517;50.742;4.224;2023-08-07T14:08:59;1.88;;;1.88;;
20711;SDS011;10517;50.742;4.224;2023-08-07T14:11:25;1.70;;;1.70;;
20711;SDS011;10517;50.742;4.224;2023-08-07T14:13:55;2.00;;;2.00;;
20711;SDS011;10517;50.742;4.224;2023-08-07T14:16:22;1.80;;;1.80;;
20711;SDS011;10517;50.742;4.224;2023-08-07T14:18:48;1.73;;;1.73;;
20711;SDS011;10517;50.742;4.224;2023-08-07T14:21:14;1.70;;;1.70;;
20711;SDS011;10517;50.742;4.224;2023-08-07T14:23:40;1.83;;;1.73;;
20711;SDS011;10517;50.742;4.224;2023-08-07T14:26:07;2.22;;;2.13;;
20711;SDS011;10517;50.742;4.224;2023-08-07T14:28:33;2.00;;;2.00;;
20711;SDS011;10517;50.742;4.224;2023-08-07T14:30:59;2.17;;;2.08;;
20711;SDS011;10517;50.742;4.224;2023-08-07T14:33:25;2.25;;;2.15;;
20711;SDS011;10517;50.742;4.224;2023-08-07T14:35:52;2.25;;;2.15;;
20711;SDS011;10517;50.742;4.224;2023-08-07T14:38:18;1.70;;;1.70;;
20711;SDS011;10517;50.742;4.224;2023-08-07T14:40:43;2.05;;;2.05;;
20711;SDS011;10517;50.742;4.224;2023-08-07T14:43:09;2.00;;;2.00;;
20711;SDS011;10517;50.742;4.224;2023-08-07T14:45:35;1.85;;;1.85;;
20711;SDS011;10517;50.742;4.224;2023-08-07T14:48:02;1.85;;;1.85;;
20711;SDS011;10517;50.742;4.224;2023-08-07T14:50:28;2.05;;;1.95;;
20711;SDS011;10517;50.742;4.224;2023-08-07T14:52:57;2.00;;;1.95;;
20711;SDS011;10517;50.742;4.224;2023-08-07T14:55:23;1.70;;;1.70;;
20711;SDS011;10517;50.742;4.224;2023-08-07T14:57:49;1.70;;;1.70;;
20711;SDS011;10517;50.742;4.224;2023-08-07T15:00:15;2.17;;;2.08;;
20711;SDS011;10517;50.742;4.224;2023-08-07T15:02:42;2.20;;;2.10;;